Time;durP1;ratioP1;P1;durP2;ratioP2;P2;SDS_P1;SDS_P2;PMS_P1;PMS_P2;Temp;Humidity;BMP_temperature;BMP_pressure;BME280_temperature;BME280_humidity;BME280_pressure;Samples;Min_cycle;Max_cycle;Signal;HPM_P1;HPM_P2
2021/12/24 00:00:10;;;;;;;;;;;;;;;14.17;60.81;100016.50;1046182;28;873;-54
2021/12/24 00:01:00;;;;;;;;;;;;;;;14.17;60.58;100013.84;1046334;28;677;-55
2021/12/24 00:01:51;;;;;;;;;;;;;;;14.16;60.77;100008.59;1046269;28;623;-54
2021/12/24 00:02:41;;;;;;;;;;;;;;;14.17;60.88;100015.66;1046179;28;641;-49
2021/12/24 00:03:31;;;;;;;;;;;;;;;14.17;60.70;100019.19;1046221;28;634;-51
2021/12/24 00:04:22;;;;;;;;;;;;;;;14.18;60.61;100018.19;1046229;28;887;-53
2021/12/24 00:05:12;;;;;;;;;;;;;;;14.17;60.81;100019.19;1046225;28;688;-53
2021/12/24 00:06:03;;;;;;;;;;;;;;;14.14;60.75;100014.13;1046330;28;629;-53
2021/12/24 00:06:53;;;;;;;;;;;;;;;14.15;60.65;100013.13;1046279;28;629;-49
2021/12/24 00:07:44;;;;;;;;;;;;;;;14.14;60.36;100014.13;1046316;28;805;-52
2021/12/24 00:08:34;;;;;;;;;;;;;;;14.13;61.03;100014.28;1046798;28;1910;-53
2021/12/24 00:09:27;;;;;;;;;;;;;;;14.13;60.46;100012.44;1046001;28;645;-51
2021/12/24 00:10:17;;;;;;;;;;;;;;;14.13;60.14;100015.13;1046036;28;1440;-52
2021/12/24 00:11:08;;;;;;;;;;;;;;;14.13;60.96;100004.41;1042682;28;748;-52
2021/12/24 00:12:02;;;;;;;;;;;;;;;14.13;60.76;100015.13;1041512;28;677;-52
2021/12/24 00:13:00;;;;;;;;;;;;;;;14.12;60.31;100005.41;1042140;28;760;-55
2021/12/24 00:13:52;;;;;;;;;;;;;;;14.12;60.60;100010.75;1041442;28;685;-53
2021/12/24 00:14:47;;;;;;;;;;;;;;;14.12;60.46;100013.44;1042511;28;742;-50
2021/12/24 00:16:52;;;;;;;;;;;;;;;14.11;61.11;100002.84;1042641;28;937;-53
2021/12/24 00:17:43;;;;;;;;;;;;;;;14.10;60.83;100009.19;1041614;28;712;-49
2021/12/24 00:18:42;;;;;;;;;;;;;;;14.09;60.69;100004.84;1041945;28;716;-53
2021/12/24 00:21:20;;;;;;;;;;;;;;;14.07;61.20;100004.97;1046656;28;641;-52
2021/12/24 00:35:33;;;;;;;;;;;;;;;14.00;61.11;99993.13;1045486;28;1220;-54
2021/12/24 00:36:24;;;;;;;;;;;;;;;14.00;61.25;100001.16;1045963;28;675;-55
2021/12/24 00:37:16;;;;;;;;;;;;;;;14.00;60.91;99997.63;1046108;28;590;-53
2021/12/24 00:38:07;;;;;;;;;;;;;;;13.99;60.56;99993.25;1045807;28;930;-55
2021/12/24 00:38:57;;;;;;;;;;;;;;;13.99;60.54;99999.47;1042269;28;696;-55
2021/12/24 00:39:55;;;;;;;;;;;;;;;13.99;60.75;99996.78;1042156;28;745;-56
2021/12/24 00:40:45;;;;;;;;;;;;;;;13.99;60.86;99990.59;1046666;28;688;-51
2021/12/24 00:41:36;;;;;;;;;;;;;;;13.98;61.33;99989.72;1046071;28;804;-53
2021/12/24 00:42:26;;;;;;;;;;;;;;;13.98;60.62;99994.25;1042509;28;630;-55
2021/12/24 00:43:17;;;;;;;;;;;;;;;13.97;60.71;99997.94;1042082;28;699;-51
2021/12/24 00:44:07;;;;;;;;;;;;;;;13.97;60.95;99996.13;1041937;28;870;-50
2021/12/24 00:44:57;;;;;;;;;;;;;;;13.97;60.76;99997.94;1042301;28;614;-54
2021/12/24 00:45:49;;;;;;;;;;;;;;;13.97;61.18;99990.75;1042187;28;944;-54
2021/12/24 00:46:39;;;;;;;;;;;;;;;13.98;61.33;99997.78;1041955;28;755;-55
2021/12/24 00:47:30;;;;;;;;;;;;;;;13.98;60.88;99989.72;1041874;28;1013;-52
2021/12/24 00:48:20;;;;;;;;;;;;;;;13.97;60.70;99988.06;1041866;28;855;-52
2021/12/24 00:49:11;;;;;;;;;;;;;;;13.97;60.87;99992.59;1041908;28;646;-53
2021/12/24 00:50:06;;;;;;;;;;;;;;;13.95;61.00;99995.41;1046004;28;629;-53
2021/12/24 00:52:07;;;;;;;;;;;;;;;13.93;60.83;99989.34;1041835;28;676;-51
2021/12/24 00:55:02;;;;;;;;;;;;;;;13.92;61.48;99995.69;1041951;28;673;-55
2021/12/24 00:55:23;;;;;;;;;;;;;;;13.94;60.74;99991.03;1041800;28;1205;-53
2021/12/24 00:56:13;;;;;;;;;;;;;;;13.95;61.33;99995.41;1041967;28;645;-52
2021/12/24 00:57:04;;;;;;;;;;;;;;;13.96;60.78;99991.75;1042069;28;636;-52
2021/12/24 00:57:54;;;;;;;;;;;;;;;13.97;61.35;100000.63;1041828;28;575;-49
2021/12/24 00:58:46;;;;;;;;;;;;;;;13.96;60.72;100002.44;1041786;28;1033;-53
2021/12/24 00:59:36;;;;;;;;;;;;;;;13.96;61.02;99997.09;1041217;28;645;-52
2021/12/24 01:00:26;;;;;;;;;;;;;;;13.96;60.73;99997.09;1043550;28;1592;-55
2021/12/24 01:01:18;;;;;;;;;;;;;;;13.95;61.42;99997.25;1046571;28;620;-54
2021/12/24 01:02:08;;;;;;;;;;;;;;;13.95;60.81;99994.56;1046451;28;903;-52
2021/12/24 01:02:58;;;;;;;;;;;;;;;13.92;60.64;99995.69;1046355;28;1140;-49
2021/12/24 01:03:49;;;;;;;;;;;;;;;13.90;61.00;99993.13;1046609;28;644;-53
2021/12/24 01:04:39;;;;;;;;;;;;;;;13.89;61.02;99994.13;1041569;28;920;-51
2021/12/24 01:05:30;;;;;;;;;;;;;;;13.89;60.88;99993.28;1040980;28;692;-55
2021/12/24 01:06:20;;;;;;;;;;;;;;;13.90;61.03;99993.13;1045230;28;743;-53
2021/12/24 01:07:10;;;;;;;;;;;;;;;13.92;61.75;99990.31;1046586;28;716;-50
2021/12/24 01:08:01;;;;;;;;;;;;;;;13.91;61.78;99983.28;1041511;28;834;-52
2021/12/24 01:08:51;;;;;;;;;;;;;;;13.90;61.39;99993.13;1041457;28;1910;-50
2021/12/24 01:09:43;;;;;;;;;;;;;;;13.88;61.48;99988.91;1045351;28;637;-51
2021/12/24 01:10:33;;;;;;;;;;;;;;;13.87;61.16;99989.91;1046594;28;644;-49
2021/12/24 01:11:27;;;;;;;;;;;;;;;13.86;61.03;99990.88;1046486;28;636;-48
2021/12/24 01:12:17;;;;;;;;;;;;;;;13.85;61.00;99983.84;1046483;28;1847;-53
2021/12/24 01:13:08;;;;;;;;;;;;;;;13.84;61.03;99988.34;1045885;28;885;-49
2021/12/24 01:13:59;;;;;;;;;;;;;;;13.85;61.72;99983.84;1041936;28;1723;-50
2021/12/24 01:14:50;;;;;;;;;;;;;;;13.86;61.34;99990.88;1042145;28;605;-50
2021/12/24 01:15:51;;;;;;;;;;;;;;;13.85;61.83;99991.88;1046619;28;621;-52
2021/12/24 01:16:51;;;;;;;;;;;;;;;13.86;60.98;99991.72;1045955;28;617;-54
2021/12/24 01:19:28;;;;;;;;;;;;;;;13.87;61.25;99987.22;1045213;28;795;-51
2021/12/24 01:22:05;;;;;;;;;;;;;;;13.85;61.51;99984.69;1045219;28;768;-52
2021/12/24 01:23:51;;;;;;;;;;;;;;;13.87;62.04;99982.72;1045284;28;833;-48
2021/12/24 01:25:01;;;;;;;;;;;;;;;13.86;61.43;99985.53;1045867;28;633;-50
2021/12/24 01:26:00;;;;;;;;;;;;;;;13.87;61.83;99984.53;1045807;28;992;-49
2021/12/24 01:28:46;;;;;;;;;;;;;;;13.86;61.43;99986.38;1045402;28;1955;-50
2021/12/24 01:39:14;;;;;;;;;;;;;;;13.80;61.59;99981.56;1039249;28;1598;-53
2021/12/24 01:42:39;;;;;;;;;;;;;;;13.80;62.27;99994.13;1044885;28;629;-51
2021/12/24 01:42:41;;;;;;;;;;;;;;;13.81;62.20;99991.28;1045837;28;866;-54
2021/12/24 01:43:32;;;;;;;;;;;;;;;13.80;62.29;99978.03;1045839;28;669;-54
2021/12/24 01:44:28;;;;;;;;;;;;;;;13.79;61.43;99990.59;1046397;28;717;-52
2021/12/24 01:45:19;;;;;;;;;;;;;;;13.79;62.44;99987.91;1046477;28;751;-54
2021/12/24 01:46:09;;;;;;;;;;;;;;;13.81;62.39;99987.78;1046403;28;613;-54
2021/12/24 01:46:59;;;;;;;;;;;;;;;13.80;62.46;99989.59;1046387;28;703;-52
2021/12/24 01:47:50;;;;;;;;;;;;;;;13.81;62.40;99993.13;1045918;28;777;-51
2021/12/24 01:48:42;;;;;;;;;;;;;;;13.81;61.59;99987.78;1046222;28;1893;-53
2021/12/24 01:49:32;;;;;;;;;;;;;;;13.80;61.75;99991.44;1045880;28;1661;-47
2021/12/24 01:50:23;;;;;;;;;;;;;;;13.78;61.48;99991.59;1041528;28;688;-49
2021/12/24 01:51:13;;;;;;;;;;;;;;;13.78;62.09;99985.41;1041224;28;590;-48
2021/12/24 01:52:04;;;;;;;;;;;;;;;13.77;62.38;99989.06;1041086;28;801;-49
2021/12/24 01:52:55;;;;;;;;;;;;;;;13.76;62.22;99982.00;1041232;28;872;-47
2021/12/24 01:53:46;;;;;;;;;;;;;;;13.77;61.57;99991.75;1041179;28;689;-51
2021/12/24 01:54:36;;;;;;;;;;;;;;;13.77;61.66;99981.03;1041390;28;633;-48
2021/12/24 01:55:26;;;;;;;;;;;;;;;13.77;62.29;99989.91;1041088;28;622;-53
2021/12/24 01:56:17;;;;;;;;;;;;;;;13.77;62.39;99989.06;1041398;28;661;-52
2021/12/24 01:57:07;;;;;;;;;;;;;;;13.76;62.40;99985.53;1036619;28;862;-51
2021/12/24 01:57:58;;;;;;;;;;;;;;;13.77;62.32;99983.72;1036965;28;703;-53
2021/12/24 01:58:48;;;;;;;;;;;;;;;13.76;62.13;99988.22;1041886;28;836;-52
2021/12/24 01:59:38;;;;;;;;;;;;;;;13.77;62.74;99989.91;1042465;28;2000;-52
2021/12/24 02:00:29;;;;;;;;;;;;;;;13.78;62.21;99974.69;1045203;28;736;-52
2021/12/24 02:01:25;;;;;;;;;;;;;;;13.76;61.72;99977.50;1045683;28;944;-50
2021/12/24 02:02:15;;;;;;;;;;;;;;;13.76;62.39;99982.00;1045595;28;898;-53
2021/12/24 02:03:06;;;;;;;;;;;;;;;13.74;62.71;99975.94;1045571;28;1255;-51
2021/12/24 02:03:56;;;;;;;;;;;;;;;13.75;62.42;99980.31;1045775;28;654;-48
2021/12/24 02:04:46;;;;;;;;;;;;;;;13.75;62.19;99989.19;1041996;28;660;-50
2021/12/24 02:05:37;;;;;;;;;;;;;;;13.76;62.54;99996.25;1041967;28;693;-47
2021/12/24 02:06:27;;;;;;;;;;;;;;;13.77;62.81;99989.06;1046143;28;699;-48
2021/12/24 02:07:19;;;;;;;;;;;;;;;13.76;62.43;99982.88;1045661;28;1278;-49
2021/12/24 02:08:09;;;;;;;;;;;;;;;13.76;62.68;99982.00;1045864;28;641;-50
2021/12/24 02:08:59;;;;;;;;;;;;;;;13.76;62.33;99990.91;1045899;28;641;-50
2021/12/24 02:09:50;;;;;;;;;;;;;;;13.76;61.78;99988.22;1045508;28;1824;-48
2021/12/24 02:10:40;;;;;;;;;;;;;;;13.74;62.57;99984.84;1045713;28;640;-51
2021/12/24 02:11:37;;;;;;;;;;;;;;;13.74;62.29;99981.31;1045725;28;751;-51
2021/12/24 02:12:28;;;;;;;;;;;;;;;13.72;62.64;99980.59;1045666;28;684;-48
2021/12/24 02:13:18;;;;;;;;;;;;;;;13.73;62.63;99988.50;1045723;28;614;-49
2021/12/24 02:14:09;;;;;;;;;;;;;;;13.73;62.05;99982.28;1045848;28;743;-50
2021/12/24 02:15:01;;;;;;;;;;;;;;;13.73;62.03;99990.31;1045709;28;637;-49
2021/12/24 02:18:02;;;;;;;;;;;;;;;13.71;62.41;99981.59;1045072;28;913;-51
2021/12/24 02:29:15;;;;;;;;;;;;;;;13.70;63.02;99980.75;1044131;28;1277;-52
2021/12/24 02:30:06;;;;;;;;;;;;;;;13.70;62.32;99985.25;1042173;28;861;-50
2021/12/24 02:30:56;;;;;;;;;;;;;;;13.69;62.84;99978.19;1041075;28;638;-48
2021/12/24 02:31:47;;;;;;;;;;;;;;;13.68;62.48;99995.25;1041050;28;751;-49
2021/12/24 02:32:37;;;;;;;;;;;;;;;13.68;63.37;99992.56;1040926;28;920;-52
2021/12/24 02:33:27;;;;;;;;;;;;;;;13.68;62.71;99981.88;1041027;28;618;-51
2021/12/24 02:34:18;;;;;;;;;;;;;;;13.67;62.68;99988.19;1041016;28;828;-49
2021/12/24 02:35:08;;;;;;;;;;;;;;;13.67;63.43;99980.16;1040919;28;642;-51
2021/12/24 02:35:59;;;;;;;;;;;;;;;13.68;62.56;99979.19;1041028;28;810;-51
2021/12/24 02:36:49;;;;;;;;;;;;;;;13.69;62.84;99983.56;1037117;28;782;-51
2021/12/24 02:37:40;;;;;;;;;;;;;;;13.69;63.38;99983.56;1037889;28;666;-53
2021/12/24 02:38:30;;;;;;;;;;;;;;;13.67;62.91;99982.84;1040962;28;722;-55
2021/12/24 02:39:21;;;;;;;;;;;;;;;13.65;63.32;99977.63;1041074;28;618;-51
2021/12/24 02:40:11;;;;;;;;;;;;;;;13.65;63.24;99988.34;1041076;28;657;-50
2021/12/24 02:41:02;;;;;;;;;;;;;;;13.66;62.65;99990.03;1044213;28;1732;-54
2021/12/24 02:41:52;;;;;;;;;;;;;;;13.66;62.69;99994.53;1045748;28;828;-53
2021/12/24 02:42:49;;;;;;;;;;;;;;;13.66;63.65;99997.22;1045657;28;721;-51
2021/12/24 02:43:39;;;;;;;;;;;;;;;13.67;63.35;99990.88;1046430;28;688;-55
2021/12/24 02:44:30;;;;;;;;;;;;;;;13.67;62.65;99990.88;1045669;28;643;-54
2021/12/24 02:45:20;;;;;;;;;;;;;;;13.65;62.77;99990.16;1041797;28;657;-51
2021/12/24 02:46:16;;;;;;;;;;;;;;;13.64;62.72;99986.66;1041848;28;836;-51
2021/12/24 02:47:14;;;;;;;;;;;;;;;13.65;63.47;99985.66;1046019;28;930;-53
2021/12/24 02:54:06;;;;;;;;;;;;;;;13.65;63.07;99982.97;1041057;28;680;-52
2021/12/24 02:54:56;;;;;;;;;;;;;;;13.65;63.38;99984.81;1042278;28;707;-50
2021/12/24 02:55:47;;;;;;;;;;;;;;;13.64;63.84;99983.13;1041036;28;617;-49
2021/12/24 02:56:37;;;;;;;;;;;;;;;13.64;63.02;99991.16;1041657;28;692;-53
2021/12/24 02:57:28;;;;;;;;;;;;;;;13.64;63.88;99983.13;1041253;28;1681;-54
2021/12/24 02:58:19;;;;;;;;;;;;;;;13.63;63.30;99984.09;1046298;28;730;-53
2021/12/24 02:59:14;;;;;;;;;;;;;;;13.62;62.80;99995.78;1041269;28;788;-52
2021/12/24 03:00:13;;;;;;;;;;;;;;;13.63;63.40;99994.81;1040777;28;637;-51
2021/12/24 03:01:04;;;;;;;;;;;;;;;13.62;63.91;99985.94;1045241;28;668;-53
2021/12/24 03:01:54;;;;;;;;;;;;;;;13.62;62.96;99991.28;1047201;28;754;-52
2021/12/24 03:02:45;;;;;;;;;;;;;;;13.62;62.97;99991.28;1046453;28;679;-52
2021/12/24 03:03:35;;;;;;;;;;;;;;;13.62;63.17;99993.97;1046915;28;767;-54
2021/12/24 03:04:27;;;;;;;;;;;;;;;13.62;63.62;99982.41;1047006;28;649;-52
2021/12/24 03:05:17;;;;;;;;;;;;;;;13.63;63.66;99992.13;1046451;28;720;-52
2021/12/24 03:06:07;;;;;;;;;;;;;;;13.63;63.41;99984.09;1047072;28;660;-51
2021/12/24 03:06:58;;;;;;;;;;;;;;;13.62;63.30;99988.59;1047050;28;688;-51
2021/12/24 03:07:48;;;;;;;;;;;;;;;13.62;63.25;99987.75;1046260;28;1831;-50
2021/12/24 03:08:39;;;;;;;;;;;;;;;13.60;63.93;99985.25;1042928;28;1975;-51
2021/12/24 03:09:29;;;;;;;;;;;;;;;13.60;63.82;99974.53;1042660;28;1076;-52
2021/12/24 03:10:19;;;;;;;;;;;;;;;13.62;63.20;99985.09;1042607;28;625;-53
2021/12/24 03:11:10;;;;;;;;;;;;;;;13.61;63.03;99980.75;1037422;28;704;-51
2021/12/24 03:12:00;;;;;;;;;;;;;;;13.60;63.18;99995.13;1037320;28;704;-51
2021/12/24 03:12:51;;;;;;;;;;;;;;;13.59;63.09;99980.03;1041720;28;790;-55
2021/12/24 03:13:41;;;;;;;;;;;;;;;13.59;62.86;99988.91;1041712;28;684;-49
2021/12/24 03:14:32;;;;;;;;;;;;;;;13.59;63.82;99993.44;1041767;28;651;-55
2021/12/24 03:15:24;;;;;;;;;;;;;;;13.59;63.06;99982.72;1041541;28;759;-54
2021/12/24 03:16:14;;;;;;;;;;;;;;;13.60;63.54;99995.97;1041652;28;876;-55
2021/12/24 03:17:10;;;;;;;;;;;;;;;13.60;63.80;99989.75;1041701;28;918;-53
2021/12/24 03:18:01;;;;;;;;;;;;;;;13.60;63.56;99989.75;1046498;28;763;-56
2021/12/24 03:18:52;;;;;;;;;;;;;;;13.60;63.33;99987.94;1047016;28;648;-55
2021/12/24 03:19:42;;;;;;;;;;;;;;;13.62;63.65;99990.44;1046373;28;656;-55
2021/12/24 03:20:34;;;;;;;;;;;;;;;13.62;63.87;99988.59;1047024;28;733;-53
2021/12/24 03:21:52;;;;;;;;;;;;;;;13.60;63.21;99992.44;1046862;28;633;-56
2021/12/24 03:23:02;;;;;;;;;;;;;;;13.58;63.30;99987.22;1046458;28;886;-55
2021/12/24 03:24:51;;;;;;;;;;;;;;;13.57;63.44;99990.03;1045160;28;744;-55
2021/12/24 03:25:42;;;;;;;;;;;;;;;13.58;63.77;99983.69;1047034;28;641;-50
2021/12/24 03:26:32;;;;;;;;;;;;;;;13.56;63.95;99978.47;1045808;28;833;-55
2021/12/24 03:27:23;;;;;;;;;;;;;;;13.57;63.66;99984.69;1046740;28;1997;-53
2021/12/24 03:28:13;;;;;;;;;;;;;;;13.57;63.24;99990.88;1046946;28;700;-50
2021/12/24 03:29:03;;;;;;;;;;;;;;;13.57;63.21;99990.03;1046997;28;652;-52
2021/12/24 03:29:55;;;;;;;;;;;;;;;13.57;64.11;99990.88;1047025;28;719;-53
2021/12/24 03:30:46;;;;;;;;;;;;;;;13.57;63.60;99984.69;1046893;28;752;-55
2021/12/24 03:31:37;;;;;;;;;;;;;;;13.59;62.99;99993.44;1047015;28;652;-52
2021/12/24 03:32:28;;;;;;;;;;;;;;;13.58;64.16;99991.72;1046698;28;1083;-52
2021/12/24 03:33:18;;;;;;;;;;;;;;;13.58;63.97;99994.41;1046335;28;747;-53
2021/12/24 03:34:09;;;;;;;;;;;;;;;13.58;63.94;99999.75;1047010;28;676;-54
2021/12/24 03:34:59;;;;;;;;;;;;;;;13.57;63.53;99998.91;1043095;28;1066;-53
2021/12/24 03:35:50;;;;;;;;;;;;;;;13.57;63.89;99993.56;1038444;28;827;-56
2021/12/24 03:36:40;;;;;;;;;;;;;;;13.57;64.17;99995.38;1038456;28;692;-53
2021/12/24 03:37:30;;;;;;;;;;;;;;;13.55;63.99;99998.22;1045674;28;704;-54
2021/12/24 03:38:21;;;;;;;;;;;;;;;13.55;64.01;99991.03;1041850;28;708;-55
2021/12/24 03:39:11;;;;;;;;;;;;;;;13.55;63.24;99990.19;1041410;28;883;-54
2021/12/24 03:40:02;;;;;;;;;;;;;;;13.57;63.75;99988.22;1045641;28;688;-52
2021/12/24 03:40:52;;;;;;;;;;;;;;;13.57;63.79;99990.03;1047044;28;786;-50
2021/12/24 03:41:42;;;;;;;;;;;;;;;13.57;63.74;99993.56;1046968;28;735;-53
2021/12/24 03:42:37;;;;;;;;;;;;;;;13.55;64.06;99999.06;1046165;28;688;-52
2021/12/24 03:43:27;;;;;;;;;;;;;;;13.56;63.59;99997.22;1046791;28;700;-54
2021/12/24 03:44:19;;;;;;;;;;;;;;;13.55;63.24;99995.53;1046845;28;692;-52
2021/12/24 03:45:25;;;;;;;;;;;;;;;13.54;63.95;99992.00;1041869;28;700;-53
2021/12/24 03:46:19;;;;;;;;;;;;;;;13.54;63.99;100001.88;1037846;28;742;-53
2021/12/24 03:47:13;;;;;;;;;;;;;;;13.52;63.36;99991.28;1042110;28;1016;-53
2021/12/24 03:48:14;;;;;;;;;;;;;;;13.52;64.16;99988.63;1041601;28;772;-52
2021/12/24 03:49:14;;;;;;;;;;;;;;;13.52;63.52;99985.94;1041568;28;634;-55
2021/12/24 03:50:09;;;;;;;;;;;;;;;13.52;63.77;99991.28;1041552;28;646;-54
2021/12/24 03:51:16;;;;;;;;;;;;;;;13.52;63.97;99988.63;1041698;28;673;-53
2021/12/24 03:53:01;;;;;;;;;;;;;;;13.52;64.01;99987.78;1041640;28;684;-54
2021/12/24 03:55:42;;;;;;;;;;;;;;;13.51;64.47;99986.94;1045045;28;2524;-53
2021/12/24 03:56:32;;;;;;;;;;;;;;;13.52;64.17;99988.63;1046904;28;708;-55
2021/12/24 03:57:23;;;;;;;;;;;;;;;13.53;64.59;99990.31;1046819;28;954;-53
2021/12/24 03:58:13;;;;;;;;;;;;;;;13.52;64.36;99993.97;1046205;28;774;-55
2021/12/24 03:59:03;;;;;;;;;;;;;;;13.52;64.66;99998.47;1046896;28;592;-54
2021/12/24 03:59:54;;;;;;;;;;;;;;;13.52;63.60;99987.78;1046845;28;856;-54
2021/12/24 04:00:44;;;;;;;;;;;;;;;13.50;63.71;99990.59;1045684;28;723;-54
2021/12/24 04:01:35;;;;;;;;;;;;;;;13.50;63.66;99993.25;1046900;28;632;-54
2021/12/24 04:02:25;;;;;;;;;;;;;;;13.49;63.60;99994.25;1046141;28;1354;-52
2021/12/24 04:03:15;;;;;;;;;;;;;;;13.50;64.25;99985.22;1046806;28;1200;-55
2021/12/24 04:04:06;;;;;;;;;;;;;;;13.49;64.26;99994.25;1046780;28;719;-54
2021/12/24 04:04:56;;;;;;;;;;;;;;;13.49;63.37;99986.22;1046893;28;851;-55
2021/12/24 04:05:47;;;;;;;;;;;;;;;13.50;64.18;99987.06;1046857;28;771;-54
2021/12/24 04:06:37;;;;;;;;;;;;;;;13.49;64.26;99991.56;1046775;28;632;-54
2021/12/24 04:07:27;;;;;;;;;;;;;;;13.50;64.21;99984.38;1046012;28;1820;-54
2021/12/24 04:08:18;;;;;;;;;;;;;;;13.49;63.58;99986.22;1046194;28;794;-53
2021/12/24 04:09:08;;;;;;;;;;;;;;;13.49;64.13;99988.03;1046266;28;684;-53
2021/12/24 04:10:05;;;;;;;;;;;;;;;13.49;63.91;99988.88;1046337;28;664;-51
2021/12/24 04:10:56;;;;;;;;;;;;;;;13.49;63.73;99993.41;1046210;28;774;-52
2021/12/24 04:11:46;;;;;;;;;;;;;;;13.49;64.34;99983.53;1046287;28;723;-54
2021/12/24 04:12:36;;;;;;;;;;;;;;;13.50;64.49;99990.59;1045973;28;839;-55
2021/12/24 04:13:27;;;;;;;;;;;;;;;13.52;63.97;99993.97;1046060;28;638;-54
2021/12/24 04:14:17;;;;;;;;;;;;;;;13.51;64.16;99981.56;1046161;28;639;-55
2021/12/24 04:15:08;;;;;;;;;;;;;;;13.50;63.68;99985.22;1046185;28;688;-55
2021/12/24 04:15:58;;;;;;;;;;;;;;;13.49;63.58;99980.88;1046332;28;689;-55
2021/12/24 04:16:48;;;;;;;;;;;;;;;13.48;64.54;99984.53;1046228;28;827;-55
2021/12/24 04:17:41;;;;;;;;;;;;;;;13.48;63.89;99995.22;1046115;28;677;-55
2021/12/24 04:25:08;;;;;;;;;;;;;;;13.46;64.19;99983.81;1045474;28;825;-55
2021/12/24 04:25:58;;;;;;;;;;;;;;;13.46;64.37;99989.16;1046262;28;771;-56
2021/12/24 04:26:48;;;;;;;;;;;;;;;13.46;64.65;99981.13;1046135;28;680;-53
2021/12/24 04:27:39;;;;;;;;;;;;;;;13.47;64.46;99990.84;1046231;28;766;-54
2021/12/24 04:28:29;;;;;;;;;;;;;;;13.46;64.52;99983.81;1042323;28;665;-54
2021/12/24 04:29:20;;;;;;;;;;;;;;;13.47;63.90;99990.84;1042261;28;957;-55
2021/12/24 04:30:12;;;;;;;;;;;;;;;13.47;64.21;99988.19;1046556;28;695;-56
2021/12/24 04:31:02;;;;;;;;;;;;;;;13.47;63.59;99987.34;1046183;28;827;-56
2021/12/24 04:32:06;;;;;;;;;;;;;;;13.46;64.32;99985.63;1042572;28;1582;-55
2021/12/24 04:33:05;;;;;;;;;;;;;;;13.46;64.45;99986.47;1042111;28;708;-53
2021/12/24 04:33:59;;;;;;;;;;;;;;;13.46;64.05;99991.00;1045390;28;1815;-54
2021/12/24 04:34:52;;;;;;;;;;;;;;;13.45;64.78;99987.47;1046165;28;692;-54
2021/12/24 04:35:56;;;;;;;;;;;;;;;13.44;64.30;99985.78;1046152;28;982;-53
2021/12/24 04:37:15;;;;;;;;;;;;;;;13.45;64.29;99989.31;1045384;28;637;-55
2021/12/24 04:51:44;;;;;;;;;;;;;;;13.41;64.34;100002.13;1041909;28;692;-54
2021/12/24 04:52:54;;;;;;;;;;;;;;;13.41;63.95;100002.13;1037578;28;666;-54
2021/12/24 05:03:08;;;;;;;;;;;;;;;13.39;64.44;99996.06;1045248;28;1126;-53
2021/12/24 05:04:02;;;;;;;;;;;;;;;13.39;64.16;99998.75;1046047;28;605;-53
2021/12/24 05:05:02;;;;;;;;;;;;;;;13.39;64.89;99993.41;1045903;28;979;-51
2021/12/24 05:06:05;;;;;;;;;;;;;;;13.39;64.20;100004.09;1046053;28;842;-55
2021/12/24 05:07:05;;;;;;;;;;;;;;;13.40;64.32;100000.44;1045873;28;838;-53
2021/12/24 05:08:14;;;;;;;;;;;;;;;13.41;64.78;99999.47;1046014;28;761;-50
2021/12/24 05:09:10;;;;;;;;;;;;;;;13.40;64.94;99996.91;1045844;28;1918;-52
2021/12/24 05:10:00;;;;;;;;;;;;;;;13.39;64.90;99997.91;1045942;28;775;-53
2021/12/24 05:10:51;;;;;;;;;;;;;;;13.40;65.21;99989.75;1045859;28;798;-53
2021/12/24 05:11:42;;;;;;;;;;;;;;;13.41;64.79;99985.22;1046031;28;637;-55
2021/12/24 05:12:34;;;;;;;;;;;;;;;13.44;64.63;99982.25;1046132;28;656;-53
2021/12/24 05:13:24;;;;;;;;;;;;;;;13.47;65.08;99990.00;1045877;28;793;-51
2021/12/24 05:14:15;;;;;;;;;;;;;;;13.48;64.30;99995.22;1045930;28;601;-55
2021/12/24 05:15:09;;;;;;;;;;;;;;;13.50;64.40;100001.28;1045936;28;613;-55
2021/12/24 05:16:06;;;;;;;;;;;;;;;13.51;65.04;99992.28;1045975;28;629;-52
2021/12/24 05:17:16;;;;;;;;;;;;;;;13.57;63.96;99995.38;1046011;28;899;-51
2021/12/24 05:22:06;;;;;;;;;;;;;;;13.76;63.93;100000.75;1041766;28;684;-54
2021/12/24 05:22:56;;;;;;;;;;;;;;;13.75;63.56;100005.28;1041909;28;817;-53
2021/12/24 05:23:47;;;;;;;;;;;;;;;13.79;64.35;100000.47;1041757;28;829;-52
2021/12/24 05:24:37;;;;;;;;;;;;;;;13.81;63.89;100003.84;1041303;28;660;-53
2021/12/24 05:25:27;;;;;;;;;;;;;;;13.85;63.68;99999.91;1041557;28;731;-51
2021/12/24 05:26:18;;;;;;;;;;;;;;;13.87;64.08;100004.13;1041846;28;673;-52
2021/12/24 05:27:08;;;;;;;;;;;;;;;13.90;64.05;99997.66;1041838;28;681;-50
2021/12/24 05:27:59;;;;;;;;;;;;;;;13.95;64.10;99998.09;1041884;28;870;-52
2021/12/24 05:28:49;;;;;;;;;;;;;;;13.98;63.96;99999.59;1041870;28;1874;-55
2021/12/24 05:29:39;;;;;;;;;;;;;;;14.00;63.88;99993.13;1043104;28;1959;-53
2021/12/24 05:30:30;;;;;;;;;;;;;;;14.03;63.43;99997.34;1041717;28;1785;-48
2021/12/24 05:31:20;;;;;;;;;;;;;;;14.06;63.54;99992.56;1041281;28;727;-51
2021/12/24 05:32:11;;;;;;;;;;;;;;;14.09;63.29;99986.94;1041673;28;1355;-49
2021/12/24 05:33:01;;;;;;;;;;;;;;;14.10;63.02;99991.28;1045278;28;1635;-51
2021/12/24 05:33:51;;;;;;;;;;;;;;;14.10;63.01;99982.41;1041676;28;791;-51
2021/12/24 05:34:42;;;;;;;;;;;;;;;14.12;63.08;99994.69;1045667;28;1370;-51
2021/12/24 05:35:32;;;;;;;;;;;;;;;14.13;62.96;99982.97;1044376;28;1573;-51
2021/12/24 05:36:23;;;;;;;;;;;;;;;14.14;63.14;99990.03;1044642;28;685;-49
2021/12/24 05:37:13;;;;;;;;;;;;;;;14.16;63.60;99987.19;1041005;28;670;-54
2021/12/24 05:38:03;;;;;;;;;;;;;;;14.16;62.84;99990.69;1040813;28;904;-52
2021/12/24 05:38:54;;;;;;;;;;;;;;;14.17;63.05;99995.06;1045078;28;670;-54
2021/12/24 05:39:44;;;;;;;;;;;;;;;14.19;62.81;100003.81;1040689;28;1769;-52
2021/12/24 05:40:35;;;;;;;;;;;;;;;14.19;63.08;99992.25;1037382;28;657;-57
2021/12/24 05:41:25;;;;;;;;;;;;;;;14.22;63.54;99997.34;1041390;28;1219;-57
2021/12/24 05:42:16;;;;;;;;;;;;;;;14.24;63.43;99996.19;1041048;28;801;-55
2021/12/24 05:43:06;;;;;;;;;;;;;;;14.27;63.03;100003.13;1043374;28;1535;-57
2021/12/24 05:43:58;;;;;;;;;;;;;;;14.29;62.67;99998.47;1044293;28;1241;-55
2021/12/24 05:44:49;;;;;;;;;;;;;;;14.29;62.96;100002.97;1044167;28;1542;-54
2021/12/24 05:45:39;;;;;;;;;;;;;;;14.28;63.24;99995.91;1042694;28;1268;-54
2021/12/24 05:46:29;;;;;;;;;;;;;;;14.29;63.19;100002.97;1044355;28;1315;-56
2021/12/24 05:47:20;;;;;;;;;;;;;;;14.29;62.99;99992.25;1042665;28;1489;-55
2021/12/24 05:48:10;;;;;;;;;;;;;;;14.28;63.03;99995.91;1042172;28;1996;-50
2021/12/24 05:49:01;;;;;;;;;;;;;;;14.27;63.27;100000.44;1042747;28;1894;-53
2021/12/24 05:49:51;;;;;;;;;;;;;;;14.27;62.97;99997.75;1042147;28;1425;-51
2021/12/24 05:50:42;;;;;;;;;;;;;;;14.29;63.37;100003.81;1043771;28;1585;-54
2021/12/24 05:51:33;;;;;;;;;;;;;;;14.28;63.07;100003.97;1042706;28;1427;-52
2021/12/24 05:52:23;;;;;;;;;;;;;;;14.25;63.60;100003.25;1041927;28;1538;-48
2021/12/24 05:53:14;;;;;;;;;;;;;;;14.30;63.43;100008.19;1043147;28;1263;-53
2021/12/24 05:54:04;;;;;;;;;;;;;;;14.31;63.15;100006.34;1044531;28;1351;-52
2021/12/24 05:54:55;;;;;;;;;;;;;;;14.31;62.90;100001.00;1043014;28;971;-49
2021/12/24 05:55:45;;;;;;;;;;;;;;;14.31;63.36;100009.03;1045295;28;1555;-48
2021/12/24 05:56:36;;;;;;;;;;;;;;;14.32;63.33;100008.06;1043421;28;1464;-51
2021/12/24 05:57:28;;;;;;;;;;;;;;;14.33;63.48;100004.38;1045233;28;1462;-49
2021/12/24 05:58:19;;;;;;;;;;;;;;;14.33;63.17;99999.03;1043741;28;1111;-52
2021/12/24 05:59:09;;;;;;;;;;;;;;;14.33;63.39;100001.69;1045799;28;1470;-51
2021/12/24 06:00:04;;;;;;;;;;;;;;;14.34;62.77;100003.38;1043985;28;1657;-54
2021/12/24 06:00:55;;;;;;;;;;;;;;;14.35;63.58;100007.72;1043351;28;1355;-54
2021/12/24 06:01:45;;;;;;;;;;;;;;;14.34;62.81;100006.88;1042515;28;1311;-52
2021/12/24 06:02:36;;;;;;;;;;;;;;;14.35;62.92;99997.88;1045476;28;1382;-51
2021/12/24 06:03:26;;;;;;;;;;;;;;;14.34;63.20;100011.41;1040448;28;1361;-53
2021/12/24 06:04:16;;;;;;;;;;;;;;;14.33;63.55;99999.03;1041132;28;1377;-54
2021/12/24 06:05:07;;;;;;;;;;;;;;;14.32;63.55;99997.34;1045009;28;1473;-52
2021/12/24 06:05:57;;;;;;;;;;;;;;;14.34;63.29;100000.69;1045770;28;1266;-54
2021/12/24 06:06:48;;;;;;;;;;;;;;;14.34;63.65;100001.53;1045066;28;1540;-52
2021/12/24 06:07:38;;;;;;;;;;;;;;;14.37;63.03;100000.41;1044921;28;1413;-49
2021/12/24 06:08:29;;;;;;;;;;;;;;;14.37;63.19;100003.09;1042351;28;1316;-53